createdAt,value
2023-11-12T00:01:03.813Z,69.37
2023-11-12T00:03:30.626Z,69.95
2023-11-12T00:05:58.069Z,69.53
2023-11-12T00:08:24.801Z,69.99
2023-11-12T00:10:53.609Z,70.03
2023-11-12T00:13:21.222Z,70.17
2023-11-12T00:15:48.032Z,70.14
2023-11-12T00:18:14.770Z,70.85
2023-11-12T00:20:41.486Z,71.01
2023-11-12T00:23:10.021Z,70.70
2023-11-12T00:25:36.780Z,71.55
2023-11-12T00:28:03.519Z,71.83
2023-11-12T00:30:30.225Z,71.57
2023-11-12T00:32:57.028Z,71.72
2023-11-12T00:35:24.101Z,72.67
2023-11-12T00:37:50.898Z,73.03
2023-11-12T00:40:17.684Z,72.99
2023-11-12T00:42:44.886Z,73.21
2023-11-12T00:45:12.705Z,73.71
2023-11-12T00:47:39.468Z,73.83
2023-11-12T00:50:06.911Z,73.61
2023-11-12T00:52:33.575Z,73.62
2023-11-12T00:55:00.248Z,73.78
2023-11-12T00:57:26.929Z,73.91
2023-11-12T00:59:53.621Z,74.25
2023-11-12T01:02:20.349Z,74.22
2023-11-12T01:04:47.490Z,75.36
2023-11-12T01:07:14.290Z,75.23
2023-11-12T01:09:41.088Z,75.60
2023-11-12T01:12:10.214Z,75.75
2023-11-12T01:14:36.996Z,76.13
2023-11-12T01:17:04.299Z,77.06
2023-11-12T01:19:31.012Z,77.34
2023-11-12T01:21:57.922Z,77.64
2023-11-12T01:24:27.234Z,77.88
2023-11-12T01:26:54.052Z,78.47
2023-11-12T01:29:21.198Z,78.59
2023-11-12T01:31:48.272Z,79.16
2023-11-12T01:34:15.388Z,79.24
2023-11-12T01:36:42.137Z,79.50
2023-11-12T01:39:09.684Z,79.91
2023-11-12T01:41:36.592Z,79.58
2023-11-12T01:44:03.882Z,80.04
2023-11-12T01:46:31.506Z,80.30
2023-11-12T01:48:58.761Z,80.99
2023-11-12T01:51:28.750Z,81.41
2023-11-12T01:53:56.677Z,81.78
2023-11-12T01:56:23.481Z,82.16
2023-11-12T01:58:53.559Z,82.44
2023-11-12T02:01:20.785Z,83.13
2023-11-12T02:03:50.105Z,83.21
2023-11-12T02:06:17.038Z,83.68
2023-11-12T02:08:44.381Z,83.74
2023-11-12T02:11:13.646Z,84.02
2023-11-12T02:13:44.142Z,84.42
2023-11-12T02:16:11.400Z,84.56
2023-11-12T02:18:38.411Z,84.35
2023-11-12T02:21:06.047Z,83.54
2023-11-12T02:23:37.582Z,83.45
2023-11-12T02:26:04.514Z,83.38
2023-11-12T02:28:31.197Z,82.92
2023-11-12T02:30:57.999Z,83.14
2023-11-12T02:33:28.605Z,82.54
2023-11-12T02:35:56.866Z,82.50
2023-11-12T02:38:24.638Z,82.42
2023-11-12T02:40:52.509Z,82.34
2023-11-12T02:43:19.606Z,82.45
2023-11-12T02:45:46.430Z,82.72
2023-11-12T02:48:13.375Z,83.16
2023-11-12T02:50:40.117Z,83.46
2023-11-12T02:53:08.599Z,83.79
2023-11-12T02:55:36.460Z,83.78
2023-11-12T02:58:03.583Z,83.66
2023-11-12T03:00:30.821Z,83.63
2023-11-12T03:02:59.992Z,84.03
2023-11-12T03:05:28.148Z,84.05
2023-11-12T03:07:55.608Z,84.50
2023-11-12T03:10:22.894Z,84.97
2023-11-12T03:12:50.066Z,85.46
2023-11-12T03:15:17.122Z,85.91
2023-11-12T03:17:45.076Z,86.04
2023-11-12T03:20:13.198Z,86.48
2023-11-12T03:22:40.065Z,86.59
2023-11-12T03:25:07.259Z,87.24
2023-11-12T03:27:34.478Z,87.66
2023-11-12T03:30:01.280Z,87.75
2023-11-12T03:32:28.504Z,87.71
2023-11-12T03:34:55.241Z,88.01
2023-11-12T03:37:22.122Z,87.91
2023-11-12T03:39:49.167Z,87.89
2023-11-12T03:42:19.946Z,88.46
2023-11-12T03:44:52.580Z,88.24
2023-11-12T03:47:19.398Z,88.49
2023-11-12T03:49:46.350Z,88.63
2023-11-12T03:52:13.569Z,88.77
2023-11-12T03:54:40.994Z,89.21
2023-11-12T03:57:08.051Z,89.48
2023-11-12T03:59:36.918Z,89.76
2023-11-12T04:02:05.518Z,90.27
2023-11-12T04:04:32.899Z,90.38
2023-11-12T04:06:59.693Z,91.02
2023-11-12T04:09:26.441Z,91.60
2023-11-12T04:11:53.184Z,91.85
2023-11-12T04:14:19.959Z,92.16
2023-11-12T04:16:46.644Z,92.46
2023-11-12T04:19:13.418Z,92.89
2023-11-12T04:21:40.200Z,93.17
2023-11-12T04:24:07.720Z,93.61
2023-11-12T04:26:34.438Z,93.88
2023-11-12T04:29:08.507Z,94.32
2023-11-12T04:31:36.985Z,94.46
2023-11-12T04:34:04.540Z,94.45
2023-11-12T04:36:32.237Z,94.38
2023-11-12T04:38:59.311Z,94.11
2023-11-12T04:41:29.279Z,93.87
2023-11-12T04:43:57.090Z,93.76
2023-11-12T04:46:24.188Z,94.26
2023-11-12T04:48:51.029Z,94.21
2023-11-12T04:51:18.255Z,94.28
2023-11-12T04:53:45.087Z,94.32
2023-11-12T04:56:13.131Z,94.44
2023-11-12T04:58:40.137Z,94.23
2023-11-12T05:01:07.804Z,92.95
2023-11-12T05:03:34.780Z,91.87
2023-11-12T05:06:01.832Z,92.10
2023-11-12T05:08:28.717Z,92.52
2023-11-12T05:10:55.425Z,92.88
2023-11-12T05:13:22.183Z,93.30
2023-11-12T05:15:49.164Z,93.52
2023-11-12T05:18:16.010Z,93.60
2023-11-12T05:20:43.170Z,93.47
2023-11-12T05:23:10.139Z,93.64
2023-11-12T05:25:36.813Z,94.12
2023-11-12T05:28:05.421Z,94.04
2023-11-12T05:30:32.455Z,94.14
2023-11-12T05:32:59.318Z,93.99
2023-11-12T05:35:26.077Z,94.02
2023-11-12T05:37:52.801Z,93.67
2023-11-12T05:40:19.522Z,93.52
2023-11-12T05:42:46.586Z,93.50
2023-11-12T05:45:13.551Z,93.08
2023-11-12T05:47:40.880Z,93.22
2023-11-12T05:50:09.076Z,93.13
2023-11-12T05:52:35.863Z,93.45
2023-11-12T05:55:02.534Z,93.46
2023-11-12T05:57:29.353Z,93.67
2023-11-12T05:59:56.077Z,93.89
2023-11-12T06:02:22.832Z,93.61
2023-11-12T06:04:49.515Z,93.81
2023-11-12T06:07:16.565Z,93.74
2023-11-12T06:09:45.486Z,93.81
2023-11-12T06:12:12.284Z,93.01
2023-11-12T06:14:39.256Z,92.53
2023-11-12T06:17:05.996Z,92.09
2023-11-12T06:19:32.901Z,92.25
2023-11-12T06:22:01.375Z,92.02
2023-11-12T06:24:28.755Z,92.11
2023-11-12T06:26:55.541Z,91.94
2023-11-12T06:29:22.592Z,92.00
2023-11-12T06:31:49.283Z,91.98
2023-11-12T06:34:15.949Z,92.25
2023-11-12T06:36:42.784Z,92.75
2023-11-12T06:39:09.485Z,93.05
2023-11-12T06:41:36.186Z,92.97
2023-11-12T06:44:02.877Z,92.83
2023-11-12T06:46:29.591Z,92.89
2023-11-12T06:48:56.374Z,92.64
2023-11-12T06:51:24.322Z,92.71
2023-11-12T06:53:51.718Z,92.85
2023-11-12T06:56:19.394Z,93.48
2023-11-12T06:58:46.265Z,92.83
2023-11-12T07:01:14.212Z,92.77
2023-11-12T07:03:41.144Z,92.13
2023-11-12T07:06:08.331Z,92.35
2023-11-12T07:08:35.328Z,92.23
2023-11-12T07:11:02.037Z,92.22
2023-11-12T07:13:28.741Z,91.98
2023-11-12T07:15:56.568Z,91.84
2023-11-12T07:18:25.112Z,91.27
2023-11-12T07:20:52.025Z,89.95
2023-11-12T07:23:18.905Z,89.75
2023-11-12T07:25:45.705Z,89.27
2023-11-12T07:28:12.904Z,88.51
2023-11-12T07:30:39.931Z,88.29
2023-11-12T07:33:09.528Z,87.44
2023-11-12T07:35:36.383Z,87.17
2023-11-12T07:38:03.182Z,86.60
2023-11-12T07:40:29.868Z,85.96
2023-11-12T07:42:57.880Z,86.01
2023-11-12T07:45:31.579Z,84.50
2023-11-12T07:48:01.973Z,79.99
2023-11-12T07:50:29.595Z,75.71
2023-11-12T07:52:56.479Z,73.27
2023-11-12T07:55:26.281Z,72.00
2023-11-12T07:57:52.986Z,70.42
2023-11-12T08:00:20.646Z,69.74
2023-11-12T08:02:48.393Z,68.75
2023-11-12T08:05:15.819Z,67.63
2023-11-12T08:07:42.557Z,68.20
2023-11-12T08:10:09.769Z,67.57
2023-11-12T08:12:38.136Z,67.64
2023-11-12T08:15:07.429Z,67.31
2023-11-12T08:17:34.122Z,64.90
2023-11-12T08:20:00.805Z,66.18
2023-11-12T08:22:28.024Z,68.83
2023-11-12T08:24:56.262Z,67.39
2023-11-12T08:27:24.041Z,64.93
2023-11-12T08:29:51.154Z,63.19
2023-11-12T08:32:17.886Z,62.13
2023-11-12T08:34:44.650Z,61.45
2023-11-12T08:37:11.538Z,61.61
2023-11-12T08:39:38.410Z,60.70
2023-11-12T08:42:05.566Z,59.19
2023-11-12T08:44:32.264Z,58.91
2023-11-12T08:46:59.132Z,58.08
2023-11-12T08:49:26.891Z,57.62
2023-11-12T08:51:53.680Z,57.32
2023-11-12T08:54:20.419Z,58.49
2023-11-12T08:56:47.387Z,57.08
2023-11-12T08:59:14.362Z,57.12
2023-11-12T09:01:42.349Z,57.88
2023-11-12T09:04:09.851Z,56.78
2023-11-12T09:06:36.732Z,56.55
2023-11-12T09:09:06.795Z,57.66
2023-11-12T09:11:33.528Z,55.83
2023-11-12T09:14:02.256Z,55.56
2023-11-12T09:16:29.014Z,55.60
2023-11-12T09:18:55.795Z,55.26
2023-11-12T09:21:23.668Z,55.40
2023-11-12T09:23:51.265Z,55.34
2023-11-12T09:26:22.518Z,55.34
2023-11-12T09:28:49.771Z,54.86
2023-11-12T09:31:16.942Z,54.78
2023-11-12T09:33:44.072Z,54.38
2023-11-12T09:36:12.029Z,55.30
2023-11-12T09:38:39.990Z,55.92
2023-11-12T09:41:07.662Z,55.00
2023-11-12T09:43:34.720Z,54.96
2023-11-12T09:46:04.045Z,55.59
2023-11-12T09:48:36.585Z,55.94
2023-11-12T09:51:06.748Z,55.08
2023-11-12T09:53:35.231Z,55.25
2023-11-12T09:56:10.459Z,53.71
2023-11-12T09:58:38.242Z,53.20
2023-11-12T10:01:09.792Z,53.52
2023-11-12T10:03:37.248Z,53.26
2023-11-12T10:06:07.857Z,53.26
2023-11-12T10:08:37.898Z,52.03
2023-11-12T10:11:14.088Z,52.00
2023-11-12T10:13:40.872Z,52.01
2023-11-12T10:16:27.883Z,52.13
2023-11-12T10:18:55.249Z,51.62
2023-11-12T10:21:22.299Z,50.74
2023-11-12T10:24:04.626Z,51.43
2023-11-12T10:26:35.465Z,51.28
2023-11-12T10:29:02.383Z,51.71
2023-11-12T10:31:39.496Z,51.19
2023-11-12T10:34:06.362Z,50.51
2023-11-12T10:36:33.180Z,50.91
2023-11-12T10:39:05.603Z,52.15
2023-11-12T10:41:36.426Z,51.79
2023-11-12T10:44:04.392Z,50.30
2023-11-12T10:46:39.656Z,50.23
2023-11-12T10:49:09.938Z,49.29
2023-11-12T10:51:40.742Z,50.00
2023-11-12T10:54:08.788Z,50.56
2023-11-12T10:56:36.676Z,50.14
2023-11-12T10:59:04.919Z,50.81
2023-11-12T11:01:34.084Z,51.57
2023-11-12T11:04:01.991Z,51.26
2023-11-12T11:06:29.175Z,51.23
2023-11-12T11:08:57.127Z,51.28
2023-11-12T11:11:25.280Z,53.11
2023-11-12T11:13:52.056Z,50.37
2023-11-12T11:16:45.757Z,50.59
2023-11-12T11:19:12.535Z,50.47
2023-11-12T11:21:40.761Z,50.09
2023-11-12T11:24:09.388Z,50.67
2023-11-12T11:26:41.517Z,50.48
2023-11-12T11:29:16.961Z,51.02
2023-11-12T11:31:47.903Z,51.28
2023-11-12T11:34:15.865Z,50.73
2023-11-12T11:37:00.538Z,51.03
2023-11-12T11:39:29.580Z,51.44
2023-11-12T11:41:56.600Z,52.33
2023-11-12T11:44:42.902Z,51.80
2023-11-12T11:47:16.966Z,51.79
2023-11-12T11:49:47.915Z,51.69
2023-11-12T11:52:28.032Z,50.42
2023-11-12T11:54:57.575Z,49.80
2023-11-12T11:57:29.538Z,50.13
2023-11-12T11:59:57.924Z,49.58
2023-11-12T12:02:26.884Z,49.66
2023-11-12T12:04:56.407Z,49.54
2023-11-12T12:07:33.106Z,49.54
2023-11-12T12:10:01.968Z,50.40
2023-11-12T12:12:29.328Z,49.62
2023-11-12T12:14:56.548Z,49.35
2023-11-12T12:17:23.843Z,46.93
2023-11-12T12:19:57.297Z,48.10
2023-11-12T12:22:28.793Z,48.31
2023-11-12T12:24:57.611Z,48.24
2023-11-12T12:27:25.498Z,47.35
2023-11-12T12:29:53.024Z,47.53
2023-11-12T12:32:21.304Z,48.30
2023-11-12T12:35:00.557Z,48.18
2023-11-12T12:37:29.145Z,48.44
2023-11-12T12:40:15.378Z,48.88
2023-11-12T12:42:44.740Z,48.57
2023-11-12T12:45:17.604Z,50.79
2023-11-12T12:47:45.576Z,49.47
2023-11-12T12:50:31.381Z,50.56
2023-11-12T12:53:19.521Z,53.80
2023-11-12T12:55:47.444Z,52.19
2023-11-12T12:58:15.316Z,50.67
2023-11-12T13:00:44.397Z,51.21
2023-11-12T13:03:32.254Z,50.58
2023-11-12T13:05:59.634Z,52.45
2023-11-12T13:08:26.628Z,51.27
2023-11-12T13:10:55.513Z,51.29
2023-11-12T13:13:23.035Z,51.36
2023-11-12T13:15:49.989Z,50.61
2023-11-12T13:18:19.012Z,51.90
2023-11-12T13:20:46.335Z,52.31
2023-11-12T13:23:13.148Z,50.76
2023-11-12T13:25:41.300Z,50.75
2023-11-12T13:28:10.140Z,50.91
2023-11-12T13:30:37.656Z,52.72
2023-11-12T13:33:05.264Z,52.86
2023-11-12T13:35:32.359Z,51.99
2023-11-12T13:37:59.245Z,51.99
2023-11-12T13:40:26.565Z,52.29
2023-11-12T13:42:55.394Z,52.46
2023-11-12T13:45:22.181Z,53.30
2023-11-12T13:47:48.941Z,52.96
2023-11-12T13:50:17.452Z,52.99
2023-11-12T13:52:45.238Z,52.66
2023-11-12T13:55:12.500Z,54.24
2023-11-12T13:57:39.425Z,54.21
2023-11-12T14:00:12.089Z,53.69
2023-11-12T14:02:39.865Z,53.76
2023-11-12T14:05:08.878Z,54.95
2023-11-12T14:07:40.024Z,54.37
2023-11-12T14:10:10.813Z,54.78
2023-11-12T14:12:39.083Z,54.69
2023-11-12T14:15:10.750Z,54.68
2023-11-12T14:17:37.838Z,54.71
2023-11-12T14:20:07.958Z,54.68
2023-11-12T14:22:35.881Z,54.98
2023-11-12T14:25:04.710Z,54.88
2023-11-12T14:27:31.819Z,55.21
2023-11-12T14:29:58.685Z,56.43
2023-11-12T14:32:25.670Z,54.87
2023-11-12T14:34:52.490Z,55.17
2023-11-12T14:37:19.572Z,55.32
2023-11-12T14:39:46.314Z,55.56
2023-11-12T14:42:12.996Z,57.10
2023-11-12T14:44:39.706Z,57.47
2023-11-12T14:47:07.494Z,57.93
2023-11-12T14:49:34.374Z,58.14
2023-11-12T14:52:01.216Z,57.52
2023-11-12T14:54:30.376Z,57.63
2023-11-12T14:56:57.405Z,58.64
2023-11-12T14:59:24.082Z,58.72
2023-11-12T15:01:51.963Z,59.57
2023-11-12T15:04:18.941Z,60.87
2023-11-12T15:06:45.873Z,60.77
2023-11-12T15:09:12.614Z,61.60
2023-11-12T15:11:41.786Z,62.19
2023-11-12T15:14:08.829Z,63.21
2023-11-12T15:16:35.896Z,63.84
2023-11-12T15:19:03.041Z,64.50
2023-11-12T15:21:29.877Z,65.38
2023-11-12T15:23:56.631Z,66.30
2023-11-12T15:26:23.365Z,67.80
2023-11-12T15:28:51.863Z,68.95
2023-11-12T15:31:19.512Z,69.91
2023-11-12T15:33:46.530Z,71.11
2023-11-12T15:36:13.583Z,71.68
2023-11-12T15:38:40.308Z,71.95
2023-11-12T15:41:07.470Z,72.32
2023-11-12T15:43:34.801Z,72.50
2023-11-12T15:46:05.669Z,72.62
2023-11-12T15:48:32.866Z,72.35
2023-11-12T15:50:59.708Z,72.56
2023-11-12T15:53:31.565Z,73.12
2023-11-12T15:56:00.020Z,73.55
2023-11-12T15:58:28.894Z,73.12
2023-11-12T16:00:55.814Z,73.81
2023-11-12T16:03:22.687Z,73.72
2023-11-12T16:05:49.567Z,74.73
2023-11-12T16:08:16.343Z,75.42
2023-11-12T16:10:43.017Z,75.40
2023-11-12T16:13:09.864Z,75.81
2023-11-12T16:15:37.179Z,76.75
2023-11-12T16:18:04.382Z,77.19
2023-11-12T16:20:33.231Z,77.54
2023-11-12T16:23:00.366Z,77.89
2023-11-12T16:25:28.141Z,78.79
2023-11-12T16:27:55.608Z,78.91
2023-11-12T16:30:25.375Z,78.53
2023-11-12T16:32:52.447Z,78.29
2023-11-12T16:35:21.074Z,77.73
2023-11-12T16:37:49.965Z,76.40
2023-11-12T16:40:19.576Z,76.18
2023-11-12T16:42:49.601Z,74.83
2023-11-12T16:45:18.133Z,75.12
2023-11-12T16:47:45.185Z,75.04
2023-11-12T16:50:15.612Z,75.60
2023-11-12T16:52:43.072Z,75.91
2023-11-12T16:55:11.145Z,76.32
2023-11-12T16:57:38.491Z,76.85
2023-11-12T17:00:07.286Z,77.36
2023-11-12T17:02:36.585Z,78.33
2023-11-12T17:05:05.912Z,78.56
2023-11-12T17:07:33.156Z,78.52
2023-11-12T17:10:00.013Z,78.98
2023-11-12T17:12:26.976Z,78.28
2023-11-12T17:14:56.110Z,77.71
2023-11-12T17:17:24.183Z,77.28
2023-11-12T17:19:50.893Z,76.94
2023-11-12T17:22:18.365Z,77.03
2023-11-12T17:24:45.850Z,77.51
2023-11-12T17:27:14.552Z,77.53
2023-11-12T17:29:41.432Z,77.88
2023-11-12T17:32:08.215Z,78.12
2023-11-12T17:34:34.939Z,78.44
2023-11-12T17:37:02.581Z,78.64
2023-11-12T17:39:29.420Z,78.72
2023-11-12T17:41:56.135Z,79.20
2023-11-12T17:44:22.853Z,79.08
2023-11-12T17:46:49.705Z,79.29
2023-11-12T17:49:16.544Z,79.84
2023-11-12T17:51:43.335Z,80.11
2023-11-12T17:54:10.494Z,80.62
2023-11-12T17:56:37.376Z,81.12
2023-11-12T17:59:04.204Z,81.57
2023-11-12T18:01:30.930Z,82.02
2023-11-12T18:03:59.951Z,82.15
2023-11-12T18:06:27.105Z,82.82
2023-11-12T18:08:53.809Z,83.39
2023-11-12T18:11:20.923Z,83.41
2023-11-12T18:13:47.795Z,83.81
2023-11-12T18:16:14.955Z,84.08
2023-11-12T18:18:43.688Z,84.76
2023-11-12T18:21:13.276Z,85.14
2023-11-12T18:23:40.511Z,85.38
2023-11-12T18:26:09.995Z,86.29
2023-11-12T18:28:38.686Z,86.91
2023-11-12T18:31:06.550Z,87.17
2023-11-12T18:37:20.858Z,88.02
2023-11-12T18:39:47.634Z,87.54
2023-11-12T18:42:14.381Z,87.70
2023-11-12T18:44:41.021Z,87.58
2023-11-12T18:47:08.403Z,88.17
2023-11-12T18:49:35.260Z,89.14
2023-11-12T18:52:04.717Z,90.09
2023-11-12T18:54:31.694Z,90.29
2023-11-12T18:56:58.627Z,90.68
2023-11-12T18:59:25.419Z,91.52
2023-11-12T19:01:52.499Z,91.69
2023-11-12T19:04:19.334Z,91.94
2023-11-12T19:06:47.676Z,91.74
2023-11-12T19:09:16.921Z,91.79
2023-11-12T19:11:43.911Z,91.66
2023-11-12T19:14:10.801Z,91.92
2023-11-12T19:16:38.360Z,92.17
2023-11-12T19:19:05.319Z,92.43
2023-11-12T19:21:37.200Z,92.50
2023-11-12T19:24:07.405Z,92.65
2023-11-12T19:26:34.073Z,93.17
2023-11-12T19:29:00.752Z,93.82
2023-11-12T19:31:33.080Z,93.88
2023-11-12T19:34:01.029Z,93.78
2023-11-12T19:36:27.884Z,93.91
2023-11-12T19:38:54.642Z,93.67
2023-11-12T19:41:23.163Z,93.53
2023-11-12T19:43:49.904Z,93.43
2023-11-12T19:46:16.733Z,93.14
2023-11-12T19:48:43.621Z,92.83
2023-11-12T19:51:10.598Z,93.51
2023-11-12T19:53:41.331Z,93.69
2023-11-12T19:56:08.485Z,94.10
2023-11-12T19:58:35.169Z,94.03
2023-11-12T20:01:02.009Z,94.36
2023-11-12T20:03:28.800Z,94.17
2023-11-12T20:05:55.637Z,94.29
2023-11-12T20:08:23.549Z,94.57
2023-11-12T20:10:50.536Z,94.68
2023-11-12T20:13:17.439Z,94.87
2023-11-12T20:15:44.320Z,94.76
2023-11-12T20:18:11.079Z,94.71
2023-11-12T20:20:43.055Z,94.62
2023-11-12T20:23:10.729Z,94.95
2023-11-12T20:25:37.546Z,94.95
2023-11-12T20:28:05.415Z,95.29
2023-11-12T20:30:35.456Z,95.24
2023-11-12T20:33:02.309Z,96.05
2023-11-12T20:35:29.620Z,96.13
2023-11-12T20:37:56.370Z,96.32
2023-11-12T20:40:23.382Z,96.16
2023-11-12T20:42:50.305Z,95.91
2023-11-12T20:45:20.360Z,95.89
2023-11-12T20:47:53.528Z,95.98
2023-11-12T20:50:20.598Z,96.23
2023-11-12T20:52:47.707Z,95.74
2023-11-12T20:55:17.400Z,95.67
2023-11-12T20:57:48.135Z,96.01
2023-11-12T21:00:19.243Z,95.91
2023-11-12T21:02:46.004Z,96.03
2023-11-12T21:05:12.821Z,96.38
2023-11-12T21:07:39.923Z,96.55
2023-11-12T21:10:08.390Z,96.49
2023-11-12T21:12:35.392Z,97.00
2023-11-12T21:15:02.678Z,96.63
2023-11-12T21:17:31.855Z,97.02
2023-11-12T21:19:59.721Z,97.36
2023-11-12T21:22:26.929Z,97.14
2023-11-12T21:24:54.219Z,97.64
2023-11-12T21:27:21.149Z,97.42
2023-11-12T21:29:51.305Z,97.76
2023-11-12T21:32:20.381Z,97.76
2023-11-12T21:34:47.493Z,97.54
2023-11-12T21:37:14.410Z,97.92
2023-11-12T21:39:41.118Z,98.13
2023-11-12T21:42:07.825Z,98.27
2023-11-12T21:44:36.335Z,98.26
2023-11-12T21:47:04.070Z,98.08
2023-11-12T21:49:30.969Z,98.55
2023-11-12T21:51:58.647Z,98.16
2023-11-12T21:54:26.381Z,98.40
2023-11-12T21:56:54.514Z,98.88
2023-11-12T21:59:22.376Z,98.94
2023-11-12T22:01:50.214Z,99.12
2023-11-12T22:04:19.062Z,98.89
2023-11-12T22:06:46.052Z,99.07
2023-11-12T22:09:15.922Z,99.13
2023-11-12T22:11:44.212Z,98.87
2023-11-12T22:14:12.210Z,99.68
2023-11-12T22:16:40.379Z,98.98
2023-11-12T22:19:07.975Z,99.85
2023-11-12T22:21:35.533Z,100.00
2023-11-12T22:24:03.355Z,100.00
2023-11-12T22:26:30.223Z,100.00
2023-11-12T22:28:57.110Z,100.00
2023-11-12T22:31:24.283Z,100.00
2023-11-12T22:33:52.282Z,100.00
2023-11-12T22:36:19.427Z,100.00
2023-11-12T22:38:46.270Z,100.00
2023-11-12T22:41:13.331Z,100.00
2023-11-12T22:43:40.497Z,100.00
2023-11-12T22:46:10.873Z,100.00
2023-11-12T22:48:38.213Z,100.00
2023-11-12T22:51:06.477Z,100.00
2023-11-12T22:53:33.269Z,100.00
2023-11-12T22:56:00.421Z,100.00
2023-11-12T22:58:30.870Z,100.00
2023-11-12T23:01:03.818Z,100.00
2023-11-12T23:03:32.779Z,100.00
2023-11-12T23:06:00.603Z,100.00
2023-11-12T23:08:27.991Z,100.00
2023-11-12T23:10:58.904Z,100.00
2023-11-12T23:13:25.916Z,100.00
2023-11-12T23:15:52.671Z,100.00
2023-11-12T23:18:20.949Z,100.00
2023-11-12T23:20:52.660Z,100.00
2023-11-12T23:23:25.897Z,100.00
2023-11-12T23:25:53.646Z,100.00
2023-11-12T23:28:20.683Z,100.00
2023-11-12T23:30:47.523Z,100.00
2023-11-12T23:33:15.154Z,100.00
2023-11-12T23:35:41.956Z,100.00
2023-11-12T23:38:08.700Z,100.00
2023-11-12T23:40:35.388Z,100.00
2023-11-12T23:43:02.063Z,100.00
2023-11-12T23:45:29.523Z,100.00
2023-11-12T23:47:56.326Z,100.00
2023-11-12T23:50:25.777Z,100.00
2023-11-12T23:52:52.468Z,100.00
2023-11-12T23:55:19.390Z,100.00
2023-11-12T23:57:47.134Z,100.00
